Time;durP1;ratioP1;P1;durP2;ratioP2;P2;SDS_P1;SDS_P2;PMS_P1;PMS_P2;Temp;Humidity;BMP_temperature;BMP_pressure;BME280_temperature;BME280_humidity;BME280_pressure;Samples;Min_cycle;Max_cycle;Signal;HPM_P1;HPM_P2
2021/10/03 00:03:34;;;;;;;5.00;2.65;;;;;;;23.10;35.98;95686.06;5024138;22;20088;-69
2021/10/03 00:06:02;;;;;;;5.00;2.47;;;;;;;22.99;35.53;95669.69;5040874;28;20044;-69
2021/10/03 00:08:27;;;;;;;4.10;2.15;;;;;;;23.09;35.67;95690.03;5025793;28;20025;-69
2021/10/03 00:10:53;;;;;;;4.47;2.50;;;;;;;23.09;36.05;95692.75;5026104;28;20508;-69
2021/10/03 00:13:20;;;;;;;4.00;2.45;;;;;;;23.07;35.78;95703.38;5025952;28;20495;-71
2021/10/03 00:15:45;;;;;;;3.42;2.28;;;;;;;23.05;35.61;95694.97;5025769;28;20052;-69
2021/10/03 00:18:11;;;;;;;4.28;2.58;;;;;;;23.05;35.85;95699.69;5025795;28;20033;-69
2021/10/03 00:20:36;;;;;;;4.20;2.33;;;;;;;23.06;36.10;95696.47;5025864;28;20029;-69
2021/10/03 00:23:02;;;;;;;3.97;2.47;;;;;;;23.04;35.60;95693.47;5025682;28;20404;-69
2021/10/03 00:25:28;;;;;;;4.10;2.45;;;;;;;22.96;36.07;95687.00;5025599;28;20052;-70
2021/10/03 00:27:53;;;;;;;4.82;2.55;;;;;;;23.01;35.98;95694.44;5025485;28;20033;-70
2021/10/03 00:30:19;;;;;;;4.18;2.25;;;;;;;23.00;35.82;95682.09;5027605;28;20084;-70
2021/10/03 00:32:44;;;;;;;4.93;2.50;;;;;;;23.01;35.96;95683.56;5029441;28;20095;-69
2021/10/03 00:35:10;;;;;;;4.80;3.13;;;;;;;23.01;35.70;95683.56;5029550;28;20017;-70
2021/10/03 00:37:36;;;;;;;3.90;2.50;;;;;;;23.00;36.10;95687.53;5029482;28;20042;-69
2021/10/03 00:40:01;;;;;;;4.55;2.65;;;;;;;22.98;35.81;95684.53;5029669;28;20022;-70
2021/10/03 00:42:27;;;;;;;4.20;2.70;;;;;;;22.98;35.73;95679.09;5029572;28;20022;-69
2021/10/03 00:44:52;;;;;;;3.92;2.60;;;;;;;22.94;36.07;95677.84;5029437;28;20033;-69
2021/10/03 00:47:18;;;;;;;5.45;2.88;;;;;;;22.95;36.23;95680.06;5029372;28;20781;-70
2021/10/03 00:49:44;;;;;;;3.78;2.60;;;;;;;22.93;35.84;95677.09;5029419;28;20036;-69
2021/10/03 00:52:10;;;;;;;5.90;2.30;;;;;;;22.93;36.11;95677.09;5029288;28;20052;-70
2021/10/03 00:54:36;;;;;;;4.40;2.50;;;;;;;22.93;36.00;95677.09;5028862;28;20029;-72
2021/10/03 00:57:02;;;;;;;3.80;2.55;;;;;;;22.93;36.11;95666.19;5029050;28;20041;-70
2021/10/03 00:59:27;;;;;;;4.25;2.72;;;;;;;22.91;35.93;95678.78;5044593;28;20037;-70
2021/10/03 01:01:53;;;;;;;5.13;2.65;;;;;;;22.90;36.27;95672.59;5029482;28;20032;-69
2021/10/03 01:04:18;;;;;;;4.65;2.60;;;;;;;22.92;36.11;95675.56;5029146;28;20054;-70
2021/10/03 01:06:44;;;;;;;4.35;2.60;;;;;;;22.88;35.80;95680.53;5029142;28;20029;-70
2021/10/03 01:09:09;;;;;;;3.80;2.65;;;;;;;22.88;35.80;95680.53;5028903;28;20022;-70
2021/10/03 01:11:35;;;;;;;4.10;2.58;;;;;;;22.86;35.84;95654.28;5029406;28;20045;-70
2021/10/03 01:14:00;;;;;;;5.30;2.75;;;;;;;22.88;36.17;95666.91;5011641;28;20025;-69
2021/10/03 01:16:26;;;;;;;4.65;2.45;;;;;;;22.88;35.80;95670.84;5044040;28;20029;-70
2021/10/03 01:18:51;;;;;;;4.35;2.60;;;;;;;22.87;35.82;95672.06;5029027;28;20032;-70
2021/10/03 01:21:16;;;;;;;3.58;2.28;;;;;;;22.90;36.07;95666.41;5028990;28;20036;-70
2021/10/03 01:23:42;;;;;;;4.28;2.75;;;;;;;22.88;36.19;95674.31;5029287;28;20099;-69
2021/10/03 01:26:08;;;;;;;5.03;2.72;;;;;;;22.84;35.93;95673.06;5029100;28;20042;-69
2021/10/03 01:28:34;;;;;;;5.50;3.42;;;;;;;22.84;35.95;95675.78;5028856;28;20033;-69
2021/10/03 01:30:59;;;;;;;6.13;2.60;;;;;;;22.83;35.85;95671.59;5028389;28;20038;-69
2021/10/03 01:33:26;;;;;;;4.07;2.58;;;;;;;22.72;36.14;95666.06;5028909;28;20044;-69
2021/10/03 01:35:52;;;;;;;3.75;2.58;;;;;;;22.83;36.05;95671.59;5027428;28;20503;-70
2021/10/03 01:38:18;;;;;;;4.60;2.67;;;;;;;22.80;36.17;95667.84;5028641;28;20044;-69
2021/10/03 01:40:47;;;;;;;5.10;2.65;;;;;;;22.80;36.01;95667.84;5028816;28;20025;-70
2021/10/03 01:43:13;;;;;;;5.95;2.78;;;;;;;22.79;36.18;95676.50;5028755;28;20118;-69
2021/10/03 01:45:38;;;;;;;4.47;2.67;;;;;;;22.81;35.83;95674.03;5028183;28;20491;-70
2021/10/03 01:48:05;;;;;;;4.63;2.72;;;;;;;22.79;35.78;95665.63;5028760;28;20117;-70
2021/10/03 01:50:31;;;;;;;3.90;2.50;;;;;;;22.70;36.05;95663.09;5028401;28;20488;-70
2021/10/03 01:52:57;;;;;;;4.40;2.70;;;;;;;22.81;36.01;95669.34;5028175;28;20029;-71
2021/10/03 01:55:22;;;;;;;5.50;3.03;;;;;;;22.82;36.08;95686.44;5028313;28;20037;-70
2021/10/03 01:57:48;;;;;;;4.70;2.58;;;;;;;22.81;35.98;95672.06;5028267;28;20036;-71
2021/10/03 02:00:13;;;;;;;4.43;2.90;;;;;;;22.78;35.83;95664.13;5028525;28;20033;-70
2021/10/03 02:02:39;;;;;;;4.03;2.67;;;;;;;22.78;35.87;95664.13;5028468;28;20057;-69
2021/10/03 02:05:05;;;;;;;4.65;2.72;;;;;;;22.73;36.21;95659.41;5028186;28;20040;-70
2021/10/03 02:07:30;;;;;;;4.65;2.58;;;;;;;22.75;35.87;95656.94;5028327;28;20473;-69
2021/10/03 02:09:57;;;;;;;5.30;2.70;;;;;;;22.74;36.29;95664.38;5027750;28;20056;-71
2021/10/03 02:12:23;;;;;;;4.10;2.45;;;;;;;22.74;35.72;95663.63;5028401;28;20369;-69
2021/10/03 02:14:48;;;;;;;5.18;2.60;;;;;;;22.49;36.06;95626.38;5027959;28;20024;-70
2021/10/03 02:17:14;;;;;;;3.95;2.60;;;;;;;22.74;35.86;95663.63;5026978;28;20029;-70
2021/10/03 02:19:40;;;;;;;4.60;2.47;;;;;;;22.74;36.01;95663.63;5027970;28;20025;-70
2021/10/03 02:22:07;;;;;;;5.07;2.85;;;;;;;22.74;35.91;95660.91;5026734;28;20029;-70
2021/10/03 02:24:32;;;;;;;4.00;2.45;;;;;;;22.72;35.70;95657.91;5038748;28;20031;-69
2021/10/03 02:26:58;;;;;;;3.92;2.88;;;;;;;22.74;36.04;95658.19;5027946;28;20029;-71
2021/10/03 02:29:23;;;;;;;5.75;2.80;;;;;;;22.71;35.92;95653.72;5028954;28;20032;-71
2021/10/03 02:31:49;;;;;;;4.00;2.33;;;;;;;22.70;36.15;95657.66;5029149;28;20034;-69
2021/10/03 02:34:14;;;;;;;4.43;2.75;;;;;;;22.71;36.06;95653.72;5027978;28;20223;-70
2021/10/03 02:36:40;;;;;;;3.63;2.75;;;;;;;22.69;36.16;95650.72;5027178;28;20036;-70
2021/10/03 02:39:05;;;;;;;4.47;2.78;;;;;;;22.70;35.76;95652.22;5027139;28;20039;-70
2021/10/03 02:41:31;;;;;;;4.35;2.60;;;;;;;22.70;36.08;95652.94;5027620;28;20060;-69
2021/10/03 02:43:57;;;;;;;4.88;2.67;;;;;;;22.67;36.02;95653.19;5027589;28;20033;-70
2021/10/03 02:46:23;;;;;;;3.95;2.60;;;;;;;22.69;36.07;95656.16;5025924;28;20800;-70
2021/10/03 02:48:51;;;;;;;4.55;2.47;;;;;;;22.68;35.89;95665.59;5027647;28;20067;-70
2021/10/03 02:51:22;;;;;;;3.33;2.10;;;;;;;22.68;35.96;95676.47;5027480;28;20482;-69
2021/10/03 02:53:47;;;;;;;5.35;2.67;;;;;;;22.66;35.89;95668.03;5026543;28;20083;-69
2021/10/03 02:56:17;;;;;;;3.53;2.35;;;;;;;22.65;36.11;95672.75;5027120;28;20466;-70
2021/10/03 02:58:42;;;;;;;3.92;2.28;;;;;;;22.65;36.11;95682.91;5027298;28;20067;-70
2021/10/03 03:01:08;;;;;;;4.53;3.20;;;;;;;22.66;36.08;95673.47;5027121;28;20443;-70
2021/10/03 03:03:35;;;;;;;3.53;2.38;;;;;;;22.64;36.09;95670.50;5026841;28;20107;-69
2021/10/03 03:06:02;;;;;;;3.63;2.70;;;;;;;22.64;36.10;95675.94;5026988;28;20392;-68
2021/10/03 03:08:28;;;;;;;4.78;2.80;;;;;;;22.65;35.88;95669.28;5026865;28;20029;-69
2021/10/03 03:10:53;;;;;;;4.38;2.67;;;;;;;22.63;36.02;95664.31;5026665;28;20407;-69
2021/10/03 03:13:19;;;;;;;3.42;2.30;;;;;;;22.62;36.03;95667.53;5026971;28;20033;-69
2021/10/03 03:15:44;;;;;;;4.13;2.53;;;;;;;22.62;35.88;95668.28;5025562;28;20037;-69
2021/10/03 03:18:10;;;;;;;4.53;2.40;;;;;;;22.63;35.86;95669.00;5026745;28;20033;-69
2021/10/03 03:20:35;;;;;;;3.42;2.35;;;;;;;22.63;35.74;95669.00;5026600;28;20108;-69
2021/10/03 03:23:01;;;;;;;3.88;2.50;;;;;;;22.62;35.85;95668.28;5026890;28;20039;-71
2021/10/03 03:25:26;;;;;;;3.72;2.35;;;;;;;22.60;35.92;95659.09;5026770;28;20037;-69
2021/10/03 03:27:52;;;;;;;3.90;2.50;;;;;;;22.63;35.77;95652.66;5026905;28;20033;-69
2021/10/03 03:30:17;;;;;;;3.65;2.35;;;;;;;22.60;35.81;95659.09;5026563;28;20033;-71
2021/10/03 03:32:43;;;;;;;3.47;2.40;;;;;;;22.60;36.50;95653.66;5026578;28;20522;-69
2021/10/03 03:35:09;;;;;;;4.47;2.60;;;;;;;22.57;35.92;95660.84;5026314;28;20506;-69
2021/10/03 03:37:34;;;;;;;4.68;2.47;;;;;;;22.59;35.98;95652.19;5026604;28;20033;-70
2021/10/03 03:39:59;;;;;;;3.47;2.45;;;;;;;22.58;35.90;95650.69;5026190;28;20033;-70
2021/10/03 03:42:25;;;;;;;4.57;2.53;;;;;;;22.54;35.97;95650.16;5026490;28;20052;-69
2021/10/03 03:44:50;;;;;;;2.90;2.38;;;;;;;22.58;35.79;95656.13;5026161;28;20507;-69
2021/10/03 03:47:16;;;;;;;4.50;2.50;;;;;;;22.57;36.08;95643.75;5026304;28;20033;-70
2021/10/03 03:49:43;;;;;;;3.90;2.60;;;;;;;22.56;35.70;95637.56;5026454;28;20273;-70
2021/10/03 03:52:09;;;;;;;4.00;2.90;;;;;;;22.43;35.97;95623.66;5026036;28;20521;-70
2021/10/03 03:54:34;;;;;;;5.47;2.63;;;;;;;22.56;36.07;95653.16;5025898;28;20033;-70
2021/10/03 03:56:59;;;;;;;3.63;2.38;;;;;;;22.57;35.99;95644.50;5025840;28;20037;-69
2021/10/03 03:59:25;;;;;;;3.60;2.30;;;;;;;22.55;35.84;95635.31;5026331;28;20041;-70
2021/10/03 04:01:52;;;;;;;3.72;2.65;;;;;;;22.55;36.05;95646.22;5026356;28;20026;-69
2021/10/03 04:04:17;;;;;;;4.00;2.72;;;;;;;22.53;35.86;95654.13;5025303;28;20375;-69
2021/10/03 04:06:43;;;;;;;3.85;2.33;;;;;;;22.54;35.93;95645.47;5018962;28;20037;-70
2021/10/03 04:09:08;;;;;;;3.55;2.22;;;;;;;22.52;36.02;95647.91;5014407;28;20044;-69
2021/10/03 04:11:33;;;;;;;4.38;2.50;;;;;;;22.52;35.60;95647.91;5005946;28;20488;-70
2021/10/03 04:13:59;;;;;;;4.15;2.60;;;;;;;22.54;36.12;95644.72;5006264;28;20491;-71
2021/10/03 04:16:24;;;;;;;3.90;2.30;;;;;;;22.54;36.22;95650.16;5005916;28;20785;-70
2021/10/03 04:18:50;;;;;;;3.65;2.63;;;;;;;22.57;36.24;95660.06;5006263;28;20030;-69
2021/10/03 04:21:15;;;;;;;3.60;2.65;;;;;;;22.55;36.33;95662.53;5006109;28;20027;-69
2021/10/03 04:23:41;;;;;;;4.20;2.45;;;;;;;22.56;36.43;95658.59;5006610;28;20511;-68
2021/10/03 04:26:07;;;;;;;4.55;2.72;;;;;;;22.57;36.01;95657.34;5016932;28;20025;-69
2021/10/03 04:28:32;;;;;;;3.80;2.45;;;;;;;22.56;36.68;95664.03;5016402;28;20144;-69
2021/10/03 04:30:58;;;;;;;4.03;2.65;;;;;;;22.55;36.67;95676.16;5015855;28;20037;-70
2021/10/03 04:33:23;;;;;;;4.13;2.35;;;;;;;22.52;36.75;95686.03;5015679;28;20025;-70
2021/10/03 04:35:49;;;;;;;4.55;2.38;;;;;;;22.52;36.42;95674.41;5013709;28;20096;-71
2021/10/03 04:38:14;;;;;;;4.55;2.55;;;;;;;22.53;36.35;95670.47;5012529;28;20064;-71
2021/10/03 04:40:40;;;;;;;3.28;2.30;;;;;;;22.52;36.56;95674.41;5014235;28;20045;-70
2021/10/03 04:43:06;;;;;;;3.50;2.60;;;;;;;22.52;36.40;95691.47;5020791;28;20061;-70
2021/10/03 04:45:31;;;;;;;3.30;2.42;;;;;;;22.52;36.63;95685.28;5021164;28;20401;-71
2021/10/03 04:48:00;;;;;;;3.78;2.50;;;;;;;22.51;36.41;95683.78;5022650;28;20087;-70
2021/10/03 04:50:25;;;;;;;4.50;2.45;;;;;;;22.52;36.53;95685.28;5022924;28;20021;-68
2021/10/03 04:52:50;;;;;;;4.85;2.60;;;;;;;22.51;36.63;95678.34;5021626;28;20025;-71
2021/10/03 04:55:16;;;;;;;4.53;2.70;;;;;;;22.57;36.23;95687.28;5020298;28;20399;-70
2021/10/03 04:57:41;;;;;;;3.58;2.50;;;;;;;22.47;36.53;95666.97;5023228;28;20380;-70
2021/10/03 05:00:08;;;;;;;4.22;2.85;;;;;;;22.64;36.31;95687.56;5022998;28;20419;-70
2021/10/03 07:12:33;;;;;;;7.65;3.97;;;;;;;24.32;31.78;95716.44;5100929;27;1295700;-60
2021/10/03 07:14:59;;;;;;;6.35;3.70;;;;;;;24.42;32.30;95720.44;5119541;28;20031;-61
2021/10/03 07:17:24;;;;;;;6.25;3.67;;;;;;;24.51;32.64;95717.44;5101447;27;20043;-63
2021/10/03 07:19:50;;;;;;;6.57;3.53;;;;;;;24.33;33.17;95707.03;5121016;28;20019;-63
2021/10/03 07:22:15;;;;;;;6.45;2.95;;;;;;;24.45;32.78;95724.88;5122162;28;20056;-63
2021/10/03 07:24:40;;;;;;;6.60;3.47;;;;;;;24.53;32.93;95720.44;5122665;28;20027;-62
2021/10/03 07:27:06;;;;;;;5.97;3.08;;;;;;;24.60;33.27;95722.63;5118377;28;20026;-62
2021/10/03 07:29:32;;;;;;;3.92;2.70;;;;;;;24.54;33.22;95710.97;5087895;28;20434;-62
2021/10/03 07:31:58;;;;;;;5.80;3.00;;;;;;;24.77;32.83;95718.63;5105691;28;20020;-62
2021/10/03 07:34:25;;;;;;;4.68;2.72;;;;;;;24.69;32.94;95716.91;5127687;27;20036;-61
2021/10/03 07:36:50;;;;;;;6.60;2.97;;;;;;;24.73;33.41;95729.06;5113395;28;20484;-62
2021/10/03 07:39:16;;;;;;;5.30;2.97;;;;;;;24.75;32.94;95731.28;5115468;28;20034;-61
2021/10/03 07:41:42;;;;;;;4.45;3.00;;;;;;;24.81;33.42;95734.75;5108287;27;20023;-61
2021/10/03 07:44:07;;;;;;;5.25;2.83;;;;;;;24.74;33.30;95718.84;5115440;27;20029;-61
2021/10/03 07:46:33;;;;;;;5.25;3.10;;;;;;;24.87;32.99;95728.78;5101266;28;20028;-61
2021/10/03 07:48:58;;;;;;;4.78;2.97;;;;;;;24.80;32.98;95722.31;5114916;28;20019;-62
2021/10/03 07:51:23;;;;;;;5.32;2.90;;;;;;;24.86;33.01;95743.66;5103096;28;20049;-61
2021/10/03 07:53:49;;;;;;;3.97;3.03;;;;;;;24.83;33.02;95744.66;5123177;28;20024;-62
2021/10/03 07:56:14;;;;;;;4.60;2.80;;;;;;;24.86;33.13;95749.13;5122601;27;20027;-62
2021/10/03 07:58:40;;;;;;;4.93;2.47;;;;;;;24.83;33.19;95728.28;5122698;28;20027;-61
2021/10/03 08:01:05;;;;;;;4.93;2.65;;;;;;;25.00;33.04;95736.44;5118131;28;20131;-61
2021/10/03 08:03:31;;;;;;;4.60;2.80;;;;;;;24.97;33.07;95749.09;5102344;28;20028;-61
2021/10/03 08:05:56;;;;;;;5.13;3.20;;;;;;;25.07;33.07;95739.41;5119928;28;20279;-61
2021/10/03 08:08:21;;;;;;;5.35;3.03;;;;;;;25.09;33.06;95727.97;5118679;28;20023;-60
2021/10/03 08:10:47;;;;;;;7.30;2.80;;;;;;;25.07;32.96;95742.13;5103844;28;20031;-60
2021/10/03 08:13:13;;;;;;;4.40;2.47;;;;;;;25.02;33.25;95734.72;5116930;28;20096;-60
2021/10/03 08:15:39;;;;;;;5.10;2.63;;;;;;;25.21;32.82;95735.63;5105488;28;20084;-60
2021/10/03 08:18:04;;;;;;;10.10;2.80;;;;;;;25.28;32.66;95723.41;5109309;28;20030;-60
2021/10/03 08:20:30;;;;;;;6.85;3.25;;;;;;;25.25;32.72;95736.09;5116116;28;20024;-61
2021/10/03 08:22:56;;;;;;;4.88;2.80;;;;;;;25.37;32.85;95727.34;5109974;28;20012;-62
2021/10/03 08:25:21;;;;;;;5.38;2.90;;;;;;;25.32;32.77;95730.13;5104573;27;20092;-63
2021/10/03 08:27:47;;;;;;;4.68;2.83;;;;;;;25.25;32.75;95722.44;5101451;28;20023;-61
2021/10/03 08:30:13;;;;;;;4.20;2.83;;;;;;;25.38;32.59;95723.34;5107706;27;20040;-61
2021/10/03 08:32:38;;;;;;;3.85;2.55;;;;;;;25.41;32.79;95722.34;5107934;28;20497;-62
2021/10/03 08:35:04;;;;;;;4.32;2.38;;;;;;;25.27;32.91;95714.47;5107193;28;20405;-62
2021/10/03 08:37:30;;;;;;;6.28;2.78;;;;;;;25.25;32.88;95719.69;5107846;28;20032;-62
2021/10/03 08:39:56;;;;;;;5.25;2.88;;;;;;;25.31;32.71;95717.69;5098275;28;20090;-62
2021/10/03 08:42:21;;;;;;;5.07;2.67;;;;;;;25.31;32.72;95717.69;5107471;28;20069;-62
2021/10/03 08:44:47;;;;;;;5.63;3.00;;;;;;;25.33;32.78;95715.94;5107492;28;20245;-62
2021/10/03 08:47:13;;;;;;;4.28;2.58;;;;;;;25.35;32.56;95723.59;5107262;28;20027;-61
2021/10/03 08:49:38;;;;;;;5.20;2.83;;;;;;;25.30;32.83;95721.66;5100369;28;20493;-61
2021/10/03 08:52:05;;;;;;;4.15;2.80;;;;;;;25.28;32.88;95718.69;5099920;28;20040;-62
2021/10/03 08:54:37;;;;;;;4.20;2.80;;;;;;;25.26;32.36;95710.25;5107664;28;20039;-62
2021/10/03 08:57:04;;;;;;;5.05;2.80;;;;;;;25.39;32.67;95707.69;5106574;28;20020;-62
2021/10/03 08:59:29;;;;;;;4.40;2.60;;;;;;;25.39;32.77;95702.22;5107815;28;20024;-62
2021/10/03 09:01:56;;;;;;;4.55;2.70;;;;;;;25.45;32.56;95694.72;5107681;28;20551;-62
2021/10/03 09:04:37;;;;;;;4.65;2.92;;;;;;;25.46;32.57;95701.69;5106958;28;20023;-62
2021/10/03 09:07:11;;;;;;;4.40;2.67;;;;;;;25.43;32.69;95691.75;5091044;28;20035;-61
2021/10/03 09:09:56;;;;;;;5.00;2.60;;;;;;;25.49;32.41;95695.22;5107570;28;20035;-62
2021/10/03 09:12:24;;;;;;;6.28;2.67;;;;;;;25.49;32.66;95695.94;5035457;28;20513;-62
2021/10/03 09:14:49;;;;;;;5.45;2.65;;;;;;;25.49;32.88;95695.22;5084248;28;20035;-61
2021/10/03 09:17:17;;;;;;;4.07;2.90;;;;;;;25.53;32.61;95695.66;5086410;28;20016;-61
2021/10/03 09:20:08;;;;;;;4.78;2.95;;;;;;;25.68;32.44;95679.66;5083688;28;20055;-62
2021/10/03 09:22:52;;;;;;;3.67;2.50;;;;;;;25.70;32.24;95693.59;5086128;28;20028;-61
2021/10/03 09:25:33;;;;;;;5.43;2.70;;;;;;;25.59;32.55;95683.44;5075997;28;20098;-60
2021/10/03 09:27:58;;;;;;;3.22;2.30;;;;;;;25.56;32.60;95689.19;5072043;28;20034;-61
2021/10/03 09:30:23;;;;;;;3.72;2.20;;;;;;;25.50;32.70;95670.09;5084112;28;20032;-61
2021/10/03 09:32:56;;;;;;;4.60;2.47;;;;;;;25.57;32.80;95679.72;5072656;28;20394;-61
2021/10/03 09:35:29;;;;;;;4.40;2.60;;;;;;;25.59;32.47;95671.75;5082717;28;20152;-62
2021/10/03 09:37:55;;;;;;;5.28;2.40;;;;;;;25.70;32.72;95677.19;5081826;28;20039;-61
2021/10/03 09:40:22;;;;;;;3.50;2.25;;;;;;;25.79;32.09;95675.59;5083131;28;20034;-61
2021/10/03 09:43:05;;;;;;;3.58;2.65;;;;;;;25.79;32.20;95679.63;5072056;28;20423;-61
2021/10/03 09:45:31;;;;;;;5.00;2.70;;;;;;;25.81;31.94;95678.59;5085362;28;20028;-63
2021/10/03 09:48:04;;;;;;;5.50;2.50;;;;;;;25.85;32.17;95673.56;5072872;28;20039;-62
2021/10/03 09:50:30;;;;;;;4.00;2.90;;;;;;;25.85;32.16;95673.56;5074789;28;20418;-69
2021/10/03 09:52:56;;;;;;;7.65;3.78;;;;;;;25.95;30.91;95672.00;5073949;28;20032;-62
2021/10/03 09:55:25;;;;;;;5.38;3.35;;;;;;;26.04;29.94;95668.22;5072431;28;20020;-61
2021/10/03 09:57:51;;;;;;;8.47;3.63;;;;;;;25.74;30.13;95650.28;5070513;28;20027;-63
2021/10/03 10:00:17;;;;;;;8.55;3.17;;;;;;;25.88;29.97;95667.06;5063361;28;20044;-62
2021/10/03 10:02:46;;;;;;;7.70;3.17;;;;;;;25.87;29.35;95665.63;5070397;28;20063;-61
2021/10/03 10:05:11;;;;;;;7.27;3.53;;;;;;;25.62;29.53;95648.84;5070395;28;20536;-61
2021/10/03 10:07:37;;;;;;;6.45;3.47;;;;;;;25.65;29.39;95659.56;5066063;28;20036;-61
2021/10/03 10:10:06;;;;;;;5.57;2.78;;;;;;;25.53;29.73;95646.44;5067182;28;20531;-60
2021/10/03 10:12:34;;;;;;;5.68;3.15;;;;;;;25.37;30.01;95633.63;5049166;28;20489;-60
2021/10/03 10:15:01;;;;;;;8.98;3.00;;;;;;;25.32;30.08;95648.09;5066045;28;20032;-61
2021/10/03 10:17:36;;;;;;;8.80;3.08;;;;;;;25.29;30.01;95632.69;5065945;28;20099;-61
2021/10/03 10:20:03;;;;;;;5.65;3.92;;;;;;;25.25;30.12;95637.69;5067287;28;20542;-61
2021/10/03 10:22:35;;;;;;;7.15;3.22;;;;;;;25.15;30.21;95627.56;5067037;28;20031;-60
2021/10/03 10:25:02;;;;;;;6.45;3.17;;;;;;;25.05;30.34;95624.38;5067025;28;20024;-63
2021/10/03 10:27:28;;;;;;;7.00;3.60;;;;;;;25.05;30.16;95624.38;5066828;28;20085;-60
2021/10/03 10:30:04;;;;;;;6.70;3.40;;;;;;;24.96;30.25;95616.47;5067125;28;20028;-61
2021/10/03 10:32:33;;;;;;;5.28;3.13;;;;;;;24.81;30.52;95604.34;5066944;28;20475;-63
2021/10/03 10:35:11;;;;;;;5.20;3.08;;;;;;;24.67;30.67;95610.13;5065651;28;20407;-63
2021/10/03 10:37:51;;;;;;;6.28;2.90;;;;;;;24.59;30.60;95604.47;5066986;28;20043;-63
2021/10/03 10:40:23;;;;;;;4.95;2.45;;;;;;;24.56;30.66;95602.00;5066806;28;20032;-61
2021/10/03 10:42:52;;;;;;;6.75;2.70;;;;;;;24.40;30.46;95586.41;5066625;28;20041;-60
2021/10/03 10:45:27;;;;;;;5.47;2.42;;;;;;;24.53;30.66;95605.72;5066725;28;20082;-61
2021/10/03 10:48:13;;;;;;;6.88;2.70;;;;;;;24.52;30.55;95598.78;5083373;28;20032;-60
2021/10/03 10:50:44;;;;;;;6.68;2.53;;;;;;;24.54;30.73;95590.81;5080696;28;20033;-61
2021/10/03 10:53:21;;;;;;;8.35;2.72;;;;;;;24.51;30.52;95602.75;5078516;28;20030;-61
2021/10/03 10:56:12;;;;;;;7.85;3.00;;;;;;;24.36;30.69;95591.38;5066997;28;20388;-60
2021/10/03 10:58:38;;;;;;;5.85;2.38;;;;;;;24.25;30.60;95579.75;5066687;28;20029;-61
2021/10/03 11:01:13;;;;;;;6.97;2.55;;;;;;;24.19;30.59;95587.94;5066861;28;20032;-59
2021/10/03 11:04:05;;;;;;;5.28;2.50;;;;;;;24.16;30.91;95588.94;5066889;28;20410;-61
2021/10/03 11:06:31;;;;;;;7.32;2.90;;;;;;;24.11;30.42;95576.06;5068136;28;20032;-61
2021/10/03 11:08:56;;;;;;;4.25;2.50;;;;;;;24.07;30.68;95581.03;5085450;28;20570;-61
2021/10/03 11:11:26;;;;;;;8.55;3.38;;;;;;;23.97;30.33;95577.06;5082150;28;20105;-63
2021/10/03 11:13:55;;;;;;;3.95;2.50;;;;;;;23.96;30.41;95575.59;5080615;28;20028;-62
2021/10/03 11:20:01;;;;;;;3.97;2.17;;;;;;;23.87;30.47;95567.69;5013153;28;20106;-64
2021/10/03 11:22:29;;;;;;;3.95;2.40;;;;;;;23.87;31.04;95562.22;5033337;28;20040;-64
2021/10/03 11:24:55;;;;;;;4.40;2.55;;;;;;;23.90;30.86;95561.22;5076833;28;20498;-64
2021/10/03 11:27:22;;;;;;;3.80;2.20;;;;;;;23.93;30.78;95543.88;5074635;28;20545;-61
2021/10/03 11:29:52;;;;;;;5.07;2.10;;;;;;;24.06;31.13;95546.78;5074292;28;20027;-61
2021/10/03 11:32:18;;;;;;;;;;;;;;;24.19;30.50;95549.72;5076544;28;20036;-61
2021/10/03 11:35:13;;;;;;;4.38;2.13;;;;;;;24.21;30.68;95536.31;5067461;28;19912;-61
2021/10/03 11:37:44;;;;;;;8.25;2.50;;;;;;;24.17;30.68;95530.41;5071119;28;20032;-61
2021/10/03 11:40:19;;;;;;;4.90;2.38;;;;;;;24.07;30.55;95531.91;5084376;28;20039;-61
2021/10/03 11:42:47;;;;;;;4.68;2.20;;;;;;;24.09;30.56;95534.13;5084903;28;20032;-61
2021/10/03 11:45:24;;;;;;;7.40;2.20;;;;;;;24.17;30.96;95524.94;5084002;28;20024;-61
2021/10/03 11:48:05;;;;;;;5.72;2.20;;;;;;;24.12;30.41;95528.41;5067883;28;20529;-60
2021/10/03 11:50:40;;;;;;;3.83;2.13;;;;;;;24.13;30.24;95524.44;5084738;28;20764;-61
2021/10/03 11:53:14;;;;;;;4.50;2.45;;;;;;;24.18;30.32;95531.84;5086341;28;20059;-61
2021/10/03 11:55:40;;;;;;;3.38;1.98;;;;;;;24.20;30.24;95523.94;5085099;28;20103;-61
2021/10/03 11:58:07;;;;;;;4.20;1.92;;;;;;;24.12;30.20;95506.56;5087777;28;20387;-60
2021/10/03 12:00:32;;;;;;;3.72;1.80;;;;;;;24.21;29.44;95514.47;5088545;28;20039;-62
2021/10/03 12:03:05;;;;;;;4.88;2.00;;;;;;;24.27;29.79;95517.94;5089701;28;20035;-61
2021/10/03 12:05:34;;;;;;;3.13;1.70;;;;;;;24.32;29.96;95514.47;5089759;28;20042;-61
2021/10/03 12:08:10;;;;;;;3.88;2.00;;;;;;;24.39;29.79;95522.13;5089846;28;20032;-62
2021/10/03 12:10:44;;;;;;;4.60;1.92;;;;;;;24.46;29.77;95518.88;5088404;28;20027;-60
2021/10/03 12:13:16;;;;;;;3.92;2.08;;;;;;;24.54;29.59;95515.13;5089568;28;20601;-60
2021/10/03 12:15:48;;;;;;;3.90;1.83;;;;;;;24.65;29.67;95508.81;5089920;28;20023;-62
2021/10/03 12:18:31;;;;;;;3.78;1.60;;;;;;;24.67;29.78;95504.34;5089609;28;20024;-61
2021/10/03 12:21:04;;;;;;;4.40;2.15;;;;;;;24.66;29.73;95510.31;5089306;28;20030;-61
2021/10/03 12:23:42;;;;;;;3.22;2.00;;;;;;;24.59;29.52;95506.16;5088158;28;20437;-63
2021/10/03 12:26:17;;;;;;;3.78;2.08;;;;;;;24.60;29.45;95512.34;5089358;28;20036;-61
2021/10/03 12:28:56;;;;;;;3.22;1.92;;;;;;;24.58;29.69;95503.91;5089467;28;20056;-62
2021/10/03 12:32:08;;;;;;;3.38;2.03;;;;;;;24.60;29.52;95501.41;5089326;28;20028;-62
2021/10/03 12:34:35;;;;;;;3.70;1.95;;;;;;;24.74;29.80;95500.34;5084478;28;20121;-61
2021/10/03 12:37:05;;;;;;;2.97;1.42;;;;;;;24.90;28.42;95492.78;5089478;28;20756;-62
2021/10/03 12:39:34;;;;;;;2.88;1.70;;;;;;;24.93;29.24;95486.31;5089129;28;20051;-61
2021/10/03 12:42:24;;;;;;;2.10;1.63;;;;;;;24.95;29.02;95489.25;5089149;28;20502;-61
2021/10/03 12:44:51;;;;;;;2.53;1.63;;;;;;;24.92;28.81;95484.81;5086060;28;20039;-61
2021/10/03 12:47:17;;;;;;;4.00;2.05;;;;;;;24.96;28.94;95485.28;5089001;28;20047;-63
2021/10/03 12:49:43;;;;;;;3.08;2.00;;;;;;;24.94;28.74;95493.25;5089131;28;20414;-61
2021/10/03 12:52:09;;;;;;;5.10;1.85;;;;;;;24.95;28.46;95483.06;5088817;28;20030;-60
2021/10/03 12:54:34;;;;;;;5.07;1.73;;;;;;;24.96;28.85;95545.41;5088746;28;20028;-62
2021/10/03 12:57:01;;;;;;;2.85;1.77;;;;;;;24.94;28.49;95476.84;5070878;28;20142;-61
2021/10/03 12:59:26;;;;;;;3.00;1.70;;;;;;;24.96;28.79;95457.22;5087782;28;20032;-62
2021/10/03 13:01:52;;;;;;;4.63;1.55;;;;;;;25.13;27.15;95483.19;5070536;28;20028;-61
2021/10/03 13:04:18;;;;;;;2.47;1.55;;;;;;;25.19;27.53;95492.09;5088712;28;20036;-61
2021/10/03 13:06:43;;;;;;;2.50;1.70;;;;;;;25.34;27.60;95487.00;5087618;28;20524;-61
2021/10/03 13:09:09;;;;;;;2.60;1.33;;;;;;;25.49;26.37;95487.34;5087174;28;20024;-61
2021/10/03 13:11:34;;;;;;;2.35;1.48;;;;;;;25.47;26.74;95473.44;5088263;28;20401;-62
2021/10/03 13:14:00;;;;;;;2.53;1.42;;;;;;;25.54;26.92;95467.41;5088679;28;20213;-61
2021/10/03 13:16:25;;;;;;;2.65;1.52;;;;;;;25.61;26.39;95488.72;5087384;28;20089;-61
2021/10/03 13:18:50;;;;;;;3.00;1.40;;;;;;;25.50;25.61;95467.69;5088360;28;20248;-61
2021/10/03 13:21:16;;;;;;;4.10;1.33;;;;;;;25.59;26.17;95481.03;5087145;28;20028;-60
2021/10/03 13:23:41;;;;;;;3.20;1.20;;;;;;;25.59;26.56;95469.34;5087521;28;20721;-61
2021/10/03 13:26:07;;;;;;;1.80;1.30;;;;;;;25.56;26.03;95462.91;5087014;28;20031;-60
2021/10/03 13:28:32;;;;;;;2.13;1.42;;;;;;;25.72;25.82;95472.22;5086864;28;20089;-61
2021/10/03 13:30:58;;;;;;;3.55;1.30;;;;;;;25.79;26.37;95478.59;5088318;28;20585;-61
2021/10/03 13:33:23;;;;;;;2.88;1.38;;;;;;;25.85;25.62;95465.59;5088198;28;20031;-62
2021/10/03 13:35:49;;;;;;;2.38;1.35;;;;;;;25.99;26.18;95469.94;5088160;28;20583;-61
2021/10/03 13:38:14;;;;;;;4.55;1.77;;;;;;;26.01;25.80;95472.88;5088112;28;20036;-63
2021/10/03 13:40:40;;;;;;;3.58;1.48;;;;;;;26.09;25.94;95473.78;5086599;28;20042;-61
2021/10/03 13:43:06;;;;;;;2.53;1.17;;;;;;;26.05;25.49;95478.81;5087960;28;20036;-61
2021/10/03 13:45:32;;;;;;;3.88;1.38;;;;;;;26.03;25.93;95475.84;5084392;28;20043;-62
2021/10/03 13:47:57;;;;;;;6.13;1.25;;;;;;;26.03;25.31;95443.00;5073239;28;20735;-61
2021/10/03 13:50:22;;;;;;;2.53;1.30;;;;;;;26.08;25.00;95466.09;5067629;28;20078;-61
2021/10/03 13:52:48;;;;;;;3.38;1.35;;;;;;;26.06;24.60;95480.28;5063722;28;20070;-61